createdAt,value
2018-07-17T00:02:17.486Z,23.80
2018-07-17T00:04:50.768Z,23.80
2018-07-17T00:07:23.793Z,23.90
2018-07-17T00:09:57.270Z,23.90
2018-07-17T00:12:30.389Z,23.80
2018-07-17T00:15:03.763Z,23.70
2018-07-17T00:17:37.349Z,23.60
2018-07-17T00:20:10.444Z,23.60
2018-07-17T00:22:43.639Z,23.50
2018-07-17T00:25:17.167Z,23.50
2018-07-17T00:27:50.361Z,23.40
2018-07-17T00:30:23.549Z,23.30
2018-07-17T00:32:56.688Z,23.30
2018-07-17T00:35:29.745Z,23.40
2018-07-17T00:38:02.956Z,23.40
2018-07-17T00:40:39.846Z,23.40
2018-07-17T00:43:13.000Z,23.40
2018-07-17T00:45:46.018Z,23.40
2018-07-17T00:48:19.812Z,23.40
2018-07-17T00:50:52.963Z,23.30
2018-07-17T00:53:28.871Z,23.20
2018-07-17T00:56:01.957Z,23.00
2018-07-17T00:58:35.487Z,23.00
2018-07-17T01:01:07.147Z,22.90
2018-07-17T01:03:47.274Z,22.80
2018-07-17T01:06:25.304Z,22.70
2018-07-17T01:09:02.999Z,22.60
2018-07-17T01:11:41.320Z,22.60
2018-07-17T01:14:33.965Z,22.50
2018-07-17T01:17:07.654Z,22.50
2018-07-17T01:19:43.262Z,22.40
2018-07-17T01:22:21.120Z,22.30
2018-07-17T01:24:54.369Z,22.30
2018-07-17T01:27:27.696Z,22.20
2018-07-17T01:30:01.190Z,22.10
2018-07-17T01:32:34.859Z,22.10
2018-07-17T01:35:08.815Z,22.10
2018-07-17T01:37:42.212Z,22.10
2018-07-17T01:40:15.714Z,22.10
2018-07-17T01:42:48.924Z,22.10
2018-07-17T01:45:22.291Z,22.00
2018-07-17T01:47:55.668Z,22.00
2018-07-17T01:50:29.195Z,21.90
2018-07-17T01:53:02.932Z,21.90
2018-07-17T01:55:36.637Z,21.90
2018-07-17T01:58:10.200Z,21.90
2018-07-17T02:00:44.267Z,21.80
2018-07-17T02:03:18.175Z,21.80
2018-07-17T02:05:52.895Z,21.80
2018-07-17T02:08:26.035Z,21.80
2018-07-17T02:10:59.196Z,21.80
2018-07-17T02:13:32.713Z,21.70
2018-07-17T02:16:05.925Z,21.70
2018-07-17T02:18:39.185Z,21.70
2018-07-17T02:21:12.540Z,21.70
2018-07-17T02:23:47.168Z,21.70
2018-07-17T02:26:20.476Z,21.70
2018-07-17T02:28:54.272Z,21.60
2018-07-17T02:31:27.718Z,21.50
2018-07-17T02:34:01.231Z,21.40
2018-07-17T02:36:34.321Z,21.30
2018-07-17T02:39:10.035Z,21.30
2018-07-17T02:41:43.116Z,21.30
2018-07-17T02:44:16.608Z,21.20
2018-07-17T02:46:56.827Z,21.20
2018-07-17T02:49:35.604Z,21.20
2018-07-17T02:52:16.934Z,21.20
2018-07-17T02:54:53.703Z,21.10
2018-07-17T02:57:32.060Z,21.10
2018-07-17T03:00:12.264Z,21.10
2018-07-17T03:02:54.092Z,21.00
2018-07-17T03:05:30.442Z,20.90
2018-07-17T03:08:06.766Z,21.00
2018-07-17T03:10:46.774Z,21.00
2018-07-17T03:13:23.817Z,21.00
2018-07-17T03:16:01.953Z,20.90
2018-07-17T03:18:45.140Z,20.80
2018-07-17T03:24:03.725Z,20.90
2018-07-17T03:26:58.279Z,20.80
2018-07-17T03:29:38.193Z,20.80
2018-07-17T03:32:20.718Z,20.70
2018-07-17T03:35:02.662Z,20.70
2018-07-17T03:37:43.036Z,20.70
2018-07-17T03:40:24.353Z,20.70
2018-07-17T03:43:03.016Z,20.70
2018-07-17T03:45:47.337Z,20.60
2018-07-17T03:48:27.850Z,20.50
2018-07-17T03:51:09.558Z,20.40
2018-07-17T03:53:47.174Z,20.40
2018-07-17T03:56:27.375Z,20.40
2018-07-17T03:59:06.963Z,20.40
2018-07-17T04:01:46.741Z,20.40
2018-07-17T04:04:26.237Z,20.40
2018-07-17T04:07:04.407Z,20.40
2018-07-17T04:09:45.051Z,20.40
2018-07-17T04:12:27.888Z,20.40
2018-07-17T04:15:08.827Z,20.30
2018-07-17T04:17:47.865Z,20.30
2018-07-17T04:20:28.051Z,20.20
2018-07-17T04:23:09.267Z,20.20
2018-07-17T04:25:49.647Z,20.20
2018-07-17T04:28:31.914Z,20.30
2018-07-17T04:31:13.887Z,20.30
2018-07-17T04:36:33.105Z,20.20
2018-07-17T04:39:06.555Z,20.10
2018-07-17T04:41:39.988Z,20.00
2018-07-17T04:44:13.235Z,20.00
2018-07-17T04:46:46.474Z,20.00
2018-07-17T04:49:19.895Z,20.00
2018-07-17T04:51:53.021Z,19.90
2018-07-17T04:54:26.236Z,19.80
2018-07-17T04:56:59.320Z,19.90
2018-07-17T04:59:32.408Z,19.80
2018-07-17T05:02:05.640Z,19.80
2018-07-17T05:04:38.676Z,19.80
2018-07-17T05:07:12.242Z,19.70
2018-07-17T05:09:45.240Z,19.60
2018-07-17T05:12:23.331Z,19.60
2018-07-17T05:14:56.444Z,19.60
2018-07-17T05:17:29.678Z,19.60
2018-07-17T05:20:02.739Z,19.60
2018-07-17T05:22:36.120Z,19.60
2018-07-17T05:25:10.267Z,19.50
2018-07-17T05:27:43.474Z,19.50
2018-07-17T05:30:16.816Z,19.40
2018-07-17T05:32:50.104Z,19.40
2018-07-17T05:35:23.373Z,19.40
2018-07-17T05:37:56.575Z,19.50
2018-07-17T05:40:29.613Z,19.50
2018-07-17T05:43:02.717Z,19.50
2018-07-17T05:45:35.998Z,19.50
2018-07-17T05:48:09.094Z,19.40
2018-07-17T05:50:42.521Z,19.40
2018-07-17T05:53:15.870Z,19.30
2018-07-17T05:55:48.955Z,19.30
2018-07-17T05:58:22.272Z,19.30
2018-07-17T06:00:55.485Z,19.30
2018-07-17T06:03:28.827Z,19.30
2018-07-17T06:06:02.053Z,19.30
2018-07-17T06:08:35.200Z,19.40
2018-07-17T06:11:08.232Z,19.40
2018-07-17T06:13:41.417Z,19.40
2018-07-17T06:16:14.680Z,19.60
2018-07-17T06:18:47.820Z,19.60
2018-07-17T06:21:21.010Z,19.50
2018-07-17T06:23:54.270Z,19.40
2018-07-17T06:26:27.663Z,19.50
2018-07-17T06:29:00.667Z,19.50
2018-07-17T06:31:34.034Z,19.50
2018-07-17T06:34:07.246Z,19.50
2018-07-17T06:36:40.489Z,19.50
2018-07-17T06:39:14.643Z,19.40
2018-07-17T06:41:47.913Z,19.40
2018-07-17T06:44:21.527Z,19.40
2018-07-17T06:46:54.787Z,19.60
2018-07-17T06:49:28.144Z,19.50
2018-07-17T06:52:01.306Z,19.50
2018-07-17T06:54:34.523Z,19.40
2018-07-17T06:57:08.188Z,19.50
2018-07-17T06:59:41.536Z,19.40
2018-07-17T07:02:14.884Z,19.40
2018-07-17T07:04:47.916Z,19.50
2018-07-17T07:07:21.150Z,19.40
2018-07-17T07:09:54.398Z,19.30
2018-07-17T07:12:27.508Z,19.30
2018-07-17T07:15:00.681Z,19.20
2018-07-17T07:17:34.080Z,19.20
2018-07-17T07:20:07.632Z,19.00
2018-07-17T07:22:40.731Z,19.20
2018-07-17T07:25:13.656Z,19.10
2018-07-17T07:27:46.804Z,19.10
2018-07-17T07:30:19.960Z,19.00
2018-07-17T07:32:53.257Z,19.10
2018-07-17T07:35:26.731Z,19.00
2018-07-17T07:38:00.015Z,19.00
2018-07-17T07:40:33.201Z,19.00
2018-07-17T07:43:06.293Z,19.00
2018-07-17T07:45:39.662Z,19.00
2018-07-17T07:48:13.149Z,19.20
2018-07-17T07:50:46.415Z,19.20
2018-07-17T07:53:19.976Z,19.20
2018-07-17T07:55:53.343Z,19.20
2018-07-17T07:58:26.498Z,19.20
2018-07-17T08:01:00.210Z,19.20
2018-07-17T08:03:33.643Z,19.20
2018-07-17T08:06:06.689Z,19.10
2018-07-17T08:08:39.885Z,19.10
2018-07-17T08:11:12.980Z,19.10
2018-07-17T08:13:46.121Z,19.00
2018-07-17T08:16:19.140Z,19.00
2018-07-17T08:18:52.866Z,19.00
2018-07-17T08:21:26.211Z,19.00
2018-07-17T08:23:59.264Z,18.90
2018-07-17T08:26:32.456Z,19.00
2018-07-17T08:29:05.401Z,19.00
2018-07-17T08:31:38.647Z,19.00
2018-07-17T08:34:11.758Z,19.00
2018-07-17T08:38:14.150Z,19.00
2018-07-17T08:40:58.857Z,18.90
2018-07-17T08:43:44.042Z,19.00
2018-07-17T08:46:17.738Z,18.90
2018-07-17T08:48:51.219Z,18.90
2018-07-17T08:51:26.192Z,18.90
2018-07-17T08:53:59.592Z,18.90
2018-07-17T08:56:32.805Z,18.90
2018-07-17T08:59:10.467Z,18.90
2018-07-17T09:01:43.647Z,19.00
2018-07-17T09:04:16.669Z,18.90
2018-07-17T09:06:49.781Z,18.90
2018-07-17T09:09:22.782Z,18.80
2018-07-17T09:11:56.040Z,18.80
2018-07-17T09:14:29.156Z,18.80
2018-07-17T09:17:02.272Z,18.80
2018-07-17T09:19:35.388Z,18.80
2018-07-17T09:22:08.652Z,18.80
2018-07-17T09:24:41.723Z,18.80
2018-07-17T09:27:17.075Z,18.80
2018-07-17T09:29:50.464Z,18.80
2018-07-17T09:32:23.686Z,18.80
2018-07-17T09:34:56.640Z,18.80
2018-07-17T09:37:30.465Z,18.70
2018-07-17T09:40:03.608Z,18.70
2018-07-17T09:42:36.510Z,18.70
2018-07-17T09:45:09.636Z,18.60
2018-07-17T09:47:42.829Z,18.70
2018-07-17T09:50:15.931Z,18.70
2018-07-17T09:52:49.083Z,18.70
2018-07-17T09:55:22.312Z,18.70
2018-07-17T09:57:55.370Z,18.70
2018-07-17T10:00:37.011Z,18.60
2018-07-17T10:03:10.151Z,18.60
2018-07-17T10:05:43.692Z,18.50
2018-07-17T10:08:16.659Z,18.50
2018-07-17T10:10:49.900Z,18.50
2018-07-17T10:13:23.211Z,18.50
2018-07-17T10:15:56.257Z,18.60
2018-07-17T10:18:29.586Z,18.50
2018-07-17T10:21:03.167Z,18.50
2018-07-17T10:23:36.495Z,18.40
2018-07-17T10:26:09.634Z,18.40
2018-07-17T10:28:42.728Z,18.40
2018-07-17T10:31:15.819Z,18.50
2018-07-17T10:34:02.251Z,18.50
2018-07-17T10:36:47.686Z,18.40
2018-07-17T10:39:34.169Z,18.40
2018-07-17T10:42:08.764Z,18.40
2018-07-17T10:44:42.647Z,18.40
2018-07-17T10:47:15.711Z,18.60
2018-07-17T10:49:48.889Z,18.60
2018-07-17T10:52:21.812Z,18.60
2018-07-17T10:54:54.911Z,18.60
2018-07-17T10:57:28.085Z,18.60
2018-07-17T11:00:01.187Z,18.60
2018-07-17T11:02:34.324Z,18.60
2018-07-17T11:05:07.556Z,18.70
2018-07-17T11:07:40.617Z,18.70
2018-07-17T11:10:13.750Z,18.70
2018-07-17T11:12:46.709Z,18.70
2018-07-17T11:15:19.875Z,18.70
2018-07-17T11:17:53.089Z,18.70
2018-07-17T11:20:26.205Z,18.60
2018-07-17T11:22:59.875Z,18.60
2018-07-17T11:25:33.039Z,18.60
2018-07-17T11:28:05.976Z,18.60
2018-07-17T11:30:39.160Z,18.50
2018-07-17T11:33:12.172Z,18.50
2018-07-17T11:35:56.313Z,18.50
2018-07-17T11:38:42.114Z,18.50
2018-07-17T11:41:24.645Z,18.50
2018-07-17T11:44:01.253Z,18.50
2018-07-17T11:46:38.552Z,18.50
2018-07-17T11:49:21.175Z,18.60
2018-07-17T11:52:06.558Z,18.60
2018-07-17T11:54:44.940Z,18.60
2018-07-17T11:57:23.427Z,18.60
2018-07-17T12:00:04.954Z,18.60
2018-07-17T12:02:53.631Z,18.60
2018-07-17T12:05:26.845Z,18.60
2018-07-17T12:08:00.081Z,18.60
2018-07-17T12:10:40.107Z,18.60
2018-07-17T12:13:19.930Z,18.60
2018-07-17T12:16:01.727Z,18.70
2018-07-17T12:18:38.854Z,18.70
2018-07-17T12:21:16.920Z,18.70
2018-07-17T12:23:57.902Z,18.70
2018-07-17T12:26:41.404Z,18.80
2018-07-17T12:29:22.839Z,18.80
2018-07-17T12:32:04.538Z,18.90
2018-07-17T12:35:00.195Z,18.90
2018-07-17T12:37:47.386Z,18.90
2018-07-17T12:40:37.291Z,18.90
2018-07-17T12:43:21.605Z,18.90
2018-07-17T12:45:59.181Z,18.90
2018-07-17T12:48:38.486Z,18.90
2018-07-17T12:51:16.677Z,18.90
2018-07-17T12:53:56.373Z,18.90
2018-07-17T12:59:22.638Z,19.00
2018-07-17T13:04:39.067Z,19.20
2018-07-17T13:07:18.311Z,19.30
2018-07-17T13:09:57.456Z,19.40
2018-07-17T13:12:38.252Z,19.40
2018-07-17T13:15:19.997Z,19.40
2018-07-17T13:18:04.675Z,19.40
2018-07-17T13:20:49.135Z,19.40
2018-07-17T13:23:27.696Z,19.50
2018-07-17T13:26:11.508Z,19.70
2018-07-17T13:28:54.370Z,19.90
2018-07-17T13:31:37.208Z,20.10
2018-07-17T13:36:58.819Z,20.70
2018-07-17T13:39:39.499Z,20.80
2018-07-17T13:42:24.437Z,21.00
2018-07-17T13:45:16.235Z,21.20
2018-07-17T13:47:56.193Z,21.20
2018-07-17T13:50:35.769Z,21.00
2018-07-17T13:53:16.326Z,21.00
2018-07-17T13:56:00.011Z,21.00
2018-07-17T13:58:43.659Z,20.90
2018-07-17T14:01:24.683Z,21.00
2018-07-17T14:04:03.213Z,20.90
2018-07-17T14:06:38.417Z,20.90
2018-07-17T14:09:14.039Z,20.90
2018-07-17T14:11:56.145Z,20.90
2018-07-17T14:14:36.173Z,21.10
2018-07-17T14:17:17.143Z,21.20
2018-07-17T14:19:58.379Z,21.20
2018-07-17T14:22:38.836Z,21.40
2018-07-17T14:25:20.143Z,21.50
2018-07-17T14:27:58.568Z,21.50
2018-07-17T14:30:39.621Z,21.60
2018-07-17T14:33:19.112Z,21.80
2018-07-17T14:35:58.364Z,21.90
2018-07-17T14:38:38.150Z,22.10
2018-07-17T14:41:19.964Z,22.10
2018-07-17T14:44:01.917Z,22.00
2018-07-17T14:46:40.326Z,21.90
2018-07-17T14:49:22.273Z,21.90
2018-07-17T14:52:01.826Z,21.70
2018-07-17T14:54:38.222Z,21.70
2018-07-17T14:57:16.358Z,21.70
2018-07-17T14:59:55.632Z,21.60
2018-07-17T15:02:44.463Z,21.60
2018-07-17T15:05:24.068Z,21.50
2018-07-17T15:08:00.642Z,21.50
2018-07-17T15:10:41.272Z,21.70
2018-07-17T15:13:19.185Z,21.80
2018-07-17T15:15:57.962Z,21.80
2018-07-17T15:18:35.946Z,21.90
2018-07-17T15:21:09.569Z,21.90
2018-07-17T15:23:42.832Z,22.20
2018-07-17T15:26:16.665Z,22.30
2018-07-17T15:28:50.778Z,22.30
2018-07-17T15:31:24.376Z,22.40
2018-07-17T15:33:59.305Z,22.50
2018-07-17T15:39:15.922Z,22.80
2018-07-17T15:41:50.477Z,22.90
2018-07-17T15:44:23.790Z,23.00
2018-07-17T15:46:57.168Z,23.30
2018-07-17T15:49:30.906Z,23.30
2018-07-17T15:52:04.219Z,23.70
2018-07-17T15:54:38.273Z,23.70
2018-07-17T15:57:12.640Z,23.80
2018-07-17T15:59:47.462Z,24.00
2018-07-17T16:02:21.227Z,23.90
2018-07-17T16:05:01.593Z,23.90
2018-07-17T16:07:36.640Z,23.90
2018-07-17T16:10:14.922Z,23.70
2018-07-17T16:12:49.044Z,23.90
2018-07-17T16:15:24.846Z,24.10
2018-07-17T16:18:00.083Z,24.00
2018-07-17T16:20:35.514Z,23.90
2018-07-17T16:23:17.362Z,24.00
2018-07-17T16:25:54.087Z,24.20
2018-07-17T16:28:32.386Z,24.50
2018-07-17T16:31:08.838Z,24.70
2018-07-17T16:36:18.893Z,24.70
2018-07-17T16:38:54.112Z,24.80
2018-07-17T16:41:30.862Z,24.90
2018-07-17T16:44:08.354Z,24.70
2018-07-17T16:46:44.283Z,24.90
2018-07-17T16:49:19.178Z,25.10
2018-07-17T16:51:58.461Z,25.10
2018-07-17T16:54:38.997Z,24.90
2018-07-17T16:57:15.153Z,24.80
2018-07-17T16:59:50.153Z,25.20
2018-07-17T17:02:33.052Z,25.30
2018-07-17T17:05:08.280Z,25.30
2018-07-17T17:07:45.356Z,25.50
2018-07-17T17:10:18.512Z,25.60
2018-07-17T17:12:52.174Z,25.40
2018-07-17T17:15:32.658Z,25.50
2018-07-17T17:18:07.276Z,25.50
2018-07-17T17:20:40.622Z,25.60
2018-07-17T17:23:14.288Z,25.60
2018-07-17T17:29:28.479Z,26.30
2018-07-17T17:32:03.747Z,27.00
2018-07-17T17:34:41.532Z,27.40
2018-07-17T17:37:18.571Z,27.40
2018-07-17T17:39:53.674Z,27.70
2018-07-17T17:42:28.940Z,27.30
2018-07-17T17:45:08.061Z,27.40
2018-07-17T17:47:42.163Z,27.70
2018-07-17T17:50:16.201Z,27.70
2018-07-17T17:52:49.276Z,27.60
2018-07-17T17:55:22.568Z,27.70
2018-07-17T18:00:34.930Z,27.40
2018-07-17T18:03:17.704Z,27.50
2018-07-17T18:05:59.069Z,28.00
2018-07-17T18:08:32.384Z,28.00
2018-07-17T18:11:06.510Z,27.60
2018-07-17T18:13:47.026Z,27.50
2018-07-17T18:16:20.892Z,27.30
2018-07-17T18:18:55.743Z,26.70
2018-07-17T18:21:29.236Z,26.80
2018-07-17T18:24:02.985Z,26.80
2018-07-17T18:26:36.465Z,27.10
2018-07-17T18:29:10.828Z,27.20
2018-07-17T18:31:44.631Z,27.30
2018-07-17T18:34:18.958Z,27.50
2018-07-17T18:36:52.837Z,27.60
2018-07-17T18:39:26.387Z,27.20
2018-07-17T18:42:00.809Z,26.70
2018-07-17T18:44:39.284Z,26.40
2018-07-17T18:47:15.034Z,26.20
2018-07-17T18:50:11.997Z,26.10
2018-07-17T18:52:25.446Z,25.70
2018-07-17T18:54:59.204Z,25.80
2018-07-17T18:57:32.832Z,26.00
2018-07-17T19:00:13.373Z,26.10
2018-07-17T19:02:55.849Z,26.10
2018-07-17T19:05:35.990Z,26.50
2018-07-17T19:08:16.766Z,26.70
2018-07-17T19:10:53.264Z,26.60
2018-07-17T19:13:36.154Z,26.40
2018-07-17T19:16:18.904Z,26.50
2018-07-17T19:19:03.990Z,26.50
2018-07-17T19:22:44.010Z,26.30
2018-07-17T19:25:20.513Z,26.80
2018-07-17T19:28:00.137Z,27.00
2018-07-17T19:30:49.176Z,27.30
2018-07-17T19:33:37.950Z,27.50
2018-07-17T19:36:17.901Z,27.40
2018-07-17T19:38:56.122Z,26.70
2018-07-17T19:41:38.918Z,26.30
2018-07-17T19:44:14.118Z,25.90
2018-07-17T19:49:30.289Z,26.70
2018-07-17T19:52:04.583Z,26.80
2018-07-17T19:57:18.752Z,27.20
2018-07-17T19:59:53.798Z,27.20
2018-07-17T20:02:28.351Z,27.30
2018-07-17T20:05:02.953Z,27.30
2018-07-17T20:07:36.851Z,27.30
2018-07-17T20:12:53.806Z,27.20
2018-07-17T20:15:31.670Z,27.20
2018-07-17T20:18:04.815Z,27.20
2018-07-17T20:20:40.935Z,27.00
2018-07-17T20:23:24.975Z,27.10
2018-07-17T20:25:59.988Z,27.10
2018-07-17T20:28:33.398Z,27.00
2018-07-17T20:31:13.345Z,26.70
2018-07-17T20:33:48.260Z,26.70
2018-07-17T20:36:25.994Z,26.70
2018-07-17T20:39:07.382Z,26.70
2018-07-17T20:41:46.727Z,26.50
2018-07-17T20:44:30.190Z,26.70
2018-07-17T20:47:06.797Z,26.90
2018-07-17T20:49:48.299Z,26.90
2018-07-17T20:52:21.513Z,27.00
2018-07-17T20:54:55.152Z,27.10
2018-07-17T20:57:31.189Z,27.10
2018-07-17T21:00:07.843Z,27.30
2018-07-17T21:02:56.350Z,27.30
2018-07-17T21:05:29.663Z,27.20
2018-07-17T21:08:05.724Z,27.00
2018-07-17T21:10:41.201Z,27.00
2018-07-17T21:13:14.802Z,27.10
2018-07-17T21:15:52.628Z,26.80
2018-07-17T21:18:34.526Z,26.70
2018-07-17T21:24:07.442Z,26.30
2018-07-17T21:26:41.982Z,26.00
2018-07-17T21:29:16.205Z,25.90
2018-07-17T21:31:49.820Z,25.80
2018-07-17T21:34:23.440Z,25.70
2018-07-17T21:36:57.105Z,25.50
2018-07-17T21:39:56.815Z,25.20
2018-07-17T21:42:31.477Z,25.00
2018-07-17T21:45:13.417Z,25.10
2018-07-17T21:47:46.522Z,25.20
2018-07-17T21:50:20.036Z,25.20
2018-07-17T21:52:54.733Z,25.20
2018-07-17T21:55:29.921Z,25.00
2018-07-17T21:58:03.272Z,25.00
2018-07-17T22:00:36.700Z,24.90
2018-07-17T22:03:10.066Z,24.90
2018-07-17T22:05:43.364Z,25.00
2018-07-17T22:08:16.733Z,25.20
2018-07-17T22:10:49.950Z,25.20
2018-07-17T22:13:23.277Z,25.20
2018-07-17T22:15:56.458Z,25.20
2018-07-17T22:18:29.685Z,25.10
2018-07-17T22:21:04.748Z,25.00
2018-07-17T22:23:37.817Z,25.00
2018-07-17T22:26:11.948Z,24.90
2018-07-17T22:28:45.221Z,24.80
2018-07-17T22:31:18.804Z,24.80
2018-07-17T22:33:52.378Z,24.70
2018-07-17T22:36:25.615Z,24.60
2018-07-17T22:38:59.174Z,24.50
2018-07-17T22:41:34.096Z,24.50
2018-07-17T22:44:07.843Z,24.50
2018-07-17T22:46:41.328Z,24.40
2018-07-17T22:49:22.181Z,24.40
2018-07-17T22:51:56.766Z,24.40
2018-07-17T22:54:29.959Z,24.60
2018-07-17T22:59:43.122Z,24.50
2018-07-17T23:02:16.292Z,24.50
2018-07-17T23:04:49.581Z,24.40
2018-07-17T23:07:23.873Z,24.30
2018-07-17T23:09:57.175Z,24.20
2018-07-17T23:12:30.320Z,24.10
2018-07-17T23:15:12.476Z,24.20
2018-07-17T23:17:56.749Z,24.30
2018-07-17T23:20:37.125Z,24.10
2018-07-17T23:23:10.953Z,24.00
2018-07-17T23:25:44.275Z,23.90
2018-07-17T23:28:18.549Z,23.90
2018-07-17T23:30:51.897Z,23.70
2018-07-17T23:33:25.097Z,23.70
2018-07-17T23:35:58.213Z,23.60
2018-07-17T23:41:04.267Z,23.60
2018-07-17T23:43:37.601Z,23.70
2018-07-17T23:46:10.738Z,23.60
2018-07-17T23:48:49.356Z,23.70
2018-07-17T23:51:22.977Z,23.80
2018-07-17T23:53:57.138Z,23.80
2018-07-17T23:56:30.661Z,23.60
2018-07-17T23:59:04.174Z,23.50
